Time;durP1;ratioP1;P1;durP2;ratioP2;P2;SDS_P1;SDS_P2;PMS_P1;PMS_P2;Temp;Humidity;BMP_temperature;BMP_pressure;BME280_temperature;BME280_humidity;BME280_pressure;Samples;Min_cycle;Max_cycle;Signal;HPM_P1;HPM_P2
2023/10/30 00:01:39;;;;;;;5.43;1.40;;;11.50;99.90;;;;;;5117855;28;20202;-44
2023/10/30 00:04:06;;;;;;;12.13;1.70;;;11.40;99.90;;;;;;5117466;28;20182;-45
2023/10/30 00:06:32;;;;;;;8.50;1.80;;;11.40;99.90;;;;;;5117687;28;20194;-43
2023/10/30 00:08:58;;;;;;;10.40;1.60;;;11.30;99.90;;;;;;5117359;28;20177;-44
2023/10/30 00:11:25;;;;;;;8.53;1.20;;;11.30;99.90;;;;;;5117356;28;20293;-45
2023/10/30 00:13:50;;;;;;;5.73;1.80;;;11.30;99.90;;;;;;5117291;28;20198;-44
2023/10/30 00:16:17;;;;;;;8.47;1.30;;;11.30;99.90;;;;;;5117818;28;20208;-45
2023/10/30 00:18:47;;;;;;;5.80;1.20;;;11.30;99.90;;;;;;5117753;28;20243;-44
2023/10/30 00:21:13;;;;;;;12.30;1.30;;;11.30;99.90;;;;;;5117751;28;20688;-44
2023/10/30 00:23:39;;;;;;;8.90;1.50;;;11.30;99.90;;;;;;5117997;28;20289;-45
2023/10/30 00:26:05;;;;;;;14.97;1.80;;;11.30;99.90;;;;;;5118193;28;20535;-45
2023/10/30 00:28:31;;;;;;;10.33;1.60;;;11.30;99.90;;;;;;5119080;28;20182;-44
2023/10/30 00:30:57;;;;;;;8.77;1.77;;;11.30;99.90;;;;;;5099816;28;20722;-45
2023/10/30 00:33:24;;;;;;;7.73;1.60;;;11.30;99.90;;;;;;5117118;28;20549;-44
2023/10/30 00:35:49;;;;;;;9.63;1.23;;;11.30;99.90;;;;;;5117228;28;20187;-45
2023/10/30 00:38:15;;;;;;;12.00;1.93;;;11.30;99.90;;;;;;5116822;28;20178;-44
2023/10/30 00:40:40;;;;;;;6.63;1.30;;;11.30;99.90;;;;;;5116370;28;20208;-45
2023/10/30 00:43:06;;;;;;;8.20;1.23;;;11.30;99.90;;;;;;5116832;28;20213;-44
2023/10/30 00:45:32;;;;;;;6.07;1.67;;;11.40;99.90;;;;;;5117186;28;20186;-44
2023/10/30 00:47:58;;;;;;;8.93;1.80;;;11.40;99.90;;;;;;5116930;28;20182;-45
2023/10/30 00:50:23;;;;;;;4.07;1.10;;;11.30;99.90;;;;;;5097923;28;20206;-45
2023/10/30 00:52:49;;;;;;;9.63;1.40;;;11.30;99.90;;;;;;5116997;28;20202;-44
2023/10/30 00:55:14;;;;;;;10.93;1.80;;;11.30;99.90;;;;;;5116737;28;20178;-45
2023/10/30 00:57:40;;;;;;;8.63;1.53;;;11.30;99.90;;;;;;5116629;28;20183;-45
2023/10/30 01:00:08;;;;;;;13.00;2.07;;;11.40;99.90;;;;;;5116231;28;20653;-45
2023/10/30 01:02:33;;;;;;;5.07;1.50;;;11.40;99.90;;;;;;5116217;28;20185;-44
2023/10/30 01:04:59;;;;;;;11.57;1.70;;;11.40;99.90;;;;;;5097820;28;20190;-45
2023/10/30 01:07:25;;;;;;;10.87;1.70;;;11.50;99.90;;;;;;5098299;28;20195;-44
2023/10/30 01:09:51;;;;;;;6.77;1.43;;;11.50;99.90;;;;;;5116524;28;20190;-44
2023/10/30 01:12:16;;;;;;;11.60;1.97;;;11.50;99.90;;;;;;5097816;28;20209;-44
2023/10/30 01:14:42;;;;;;;9.20;1.97;;;11.50;99.90;;;;;;5116468;28;20514;-44
2023/10/30 01:17:08;;;;;;;9.07;1.07;;;11.50;99.90;;;;;;5116383;28;20235;-44
2023/10/30 01:19:35;;;;;;;3.57;1.17;;;11.50;99.90;;;;;;5116300;28;20170;-44
2023/10/30 01:22:00;;;;;;;7.67;1.60;;;11.50;99.90;;;;;;5116062;28;20216;-45
2023/10/30 01:24:26;;;;;;;7.80;1.50;;;11.60;99.90;;;;;;5115872;28;20194;-45
2023/10/30 01:26:52;;;;;;;7.30;1.40;;;11.60;99.90;;;;;;5116043;28;20190;-47
2023/10/30 01:29:20;;;;;;;4.83;1.10;;;11.60;99.90;;;;;;5115944;28;20638;-44
2023/10/30 01:31:49;;;;;;;10.67;1.80;;;11.60;99.90;;;;;;5115933;28;20229;-44
2023/10/30 01:34:16;;;;;;;10.03;1.97;;;11.70;99.90;;;;;;5115691;28;20550;-45
2023/10/30 01:36:41;;;;;;;5.37;1.53;;;11.70;99.90;;;;;;5116084;28;20228;-44
2023/10/30 01:39:07;;;;;;;8.53;1.60;;;11.70;99.90;;;;;;5115531;28;20183;-45
2023/10/30 01:41:32;;;;;;;10.40;1.87;;;11.70;99.90;;;;;;5097366;28;20301;-45
2023/10/30 01:43:58;;;;;;;10.23;2.00;;;11.70;99.90;;;;;;5115388;28;20193;-46
2023/10/30 01:46:24;;;;;;;9.93;1.90;;;11.70;99.90;;;;;;5115931;28;20647;-46
2023/10/30 01:48:49;;;;;;;11.43;1.67;;;11.70;99.90;;;;;;5115449;28;20174;-44
2023/10/30 01:51:20;;;;;;;7.37;1.83;;;11.70;99.90;;;;;;5115586;28;20714;-44
2023/10/30 01:53:47;;;;;;;8.67;1.50;;;11.70;99.90;;;;;;5115168;28;20215;-45
2023/10/30 01:56:13;;;;;;;10.33;1.97;;;11.70;99.90;;;;;;5115262;28;20261;-45
2023/10/30 01:58:39;;;;;;;12.53;1.57;;;11.70;99.90;;;;;;5115225;28;20186;-45
2023/10/30 02:01:05;;;;;;;11.73;1.70;;;11.70;99.90;;;;;;5114733;28;20202;-45
2023/10/30 02:03:33;;;;;;;6.70;1.47;;;11.70;99.90;;;;;;5115114;28;20217;-45
2023/10/30 02:05:59;;;;;;;8.03;1.60;;;11.70;99.90;;;;;;5115121;28;20225;-44
2023/10/30 02:08:25;;;;;;;8.73;2.10;;;11.70;99.90;;;;;;5115335;28;20540;-45
2023/10/30 02:10:54;;;;;;;6.83;1.40;;;11.70;99.90;;;;;;5114826;28;20681;-43
2023/10/30 02:13:24;;;;;;;10.50;1.73;;;11.60;99.90;;;;;;5115081;28;20233;-44
2023/10/30 02:15:49;;;;;;;9.50;1.60;;;11.60;99.90;;;;;;5114863;28;20186;-45
2023/10/30 02:18:15;;;;;;;7.37;1.97;;;11.60;99.90;;;;;;5114881;28;20190;-45
2023/10/30 02:20:41;;;;;;;8.37;1.70;;;11.60;99.90;;;;;;5114990;28;20194;-44
2023/10/30 02:23:08;;;;;;;5.07;1.20;;;11.50;99.90;;;;;;5114701;28;20255;-44
2023/10/30 02:25:34;;;;;;;10.17;1.87;;;11.50;99.90;;;;;;5114969;28;20193;-44
2023/10/30 02:27:59;;;;;;;9.60;1.20;;;11.50;99.90;;;;;;5115007;28;20541;-44
2023/10/30 02:30:28;;;;;;;4.10;1.13;;;11.40;99.90;;;;;;5114509;28;20205;-44
2023/10/30 02:32:53;;;;;;;8.80;1.17;;;11.40;99.90;;;;;;5114736;28;20214;-44
2023/10/30 02:35:19;;;;;;;9.10;1.40;;;11.40;99.90;;;;;;5114592;28;20189;-44
2023/10/30 02:37:47;;;;;;;8.93;2.47;;;11.40;99.90;;;;;;5114534;28;20208;-44
2023/10/30 02:40:15;;;;;;;6.83;1.50;;;11.30;99.90;;;;;;5114452;28;20218;-44
2023/10/30 02:42:41;;;;;;;7.83;1.40;;;11.30;99.90;;;;;;5114573;28;20194;-44
2023/10/30 02:45:07;;;;;;;8.43;1.83;;;11.30;99.90;;;;;;5114566;28;20193;-45
2023/10/30 02:47:34;;;;;;;8.77;1.60;;;11.30;99.90;;;;;;5114263;28;20190;-45
2023/10/30 02:50:03;;;;;;;6.07;1.83;;;11.30;99.90;;;;;;5114135;28;20654;-44
2023/10/30 02:52:30;;;;;;;8.13;1.43;;;11.30;99.90;;;;;;5096576;28;20203;-44
2023/10/30 02:54:55;;;;;;;8.17;1.83;;;11.30;99.90;;;;;;5114389;28;20542;-44
2023/10/30 02:57:21;;;;;;;7.03;1.23;;;11.20;99.90;;;;;;5114504;28;20206;-44
2023/10/30 02:59:47;;;;;;;9.77;1.60;;;11.30;99.90;;;;;;5114723;28;20217;-45
2023/10/30 03:02:13;;;;;;;9.73;1.43;;;11.20;99.90;;;;;;5114185;28;20635;-45
2023/10/30 03:04:39;;;;;;;12.83;1.83;;;11.20;99.90;;;;;;5096268;28;20190;-45
2023/10/30 03:07:05;;;;;;;7.97;1.23;;;11.20;99.90;;;;;;5114140;28;20547;-46
2023/10/30 03:09:35;;;;;;;6.97;1.33;;;11.20;99.90;;;;;;5113975;28;20190;-47
2023/10/30 03:12:00;;;;;;;3.17;0.83;;;11.20;99.90;;;;;;5095786;28;20218;-47
2023/10/30 03:14:26;;;;;;;7.10;1.60;;;11.20;99.90;;;;;;5114203;28;20220;-45
2023/10/30 03:16:51;;;;;;;9.93;1.70;;;11.10;99.90;;;;;;5114264;28;20536;-46
2023/10/30 03:19:18;;;;;;;7.23;1.50;;;11.20;99.90;;;;;;5113967;28;20188;-46
2023/10/30 03:21:44;;;;;;;5.13;1.40;;;11.10;99.90;;;;;;5095953;28;20634;-45
2023/10/30 03:24:10;;;;;;;9.30;1.80;;;11.10;99.90;;;;;;5114187;28;20224;-45
2023/10/30 03:26:35;;;;;;;7.60;1.23;;;11.10;99.90;;;;;;5113994;28;20270;-45
2023/10/30 03:29:02;;;;;;;5.27;1.30;;;11.10;99.90;;;;;;5113807;28;20261;-45
2023/10/30 03:31:28;;;;;;;6.80;1.40;;;11.00;99.90;;;;;;5095600;28;20244;-45
2023/10/30 03:33:54;;;;;;;6.20;1.47;;;10.90;99.90;;;;;;5096416;28;20249;-45
2023/10/30 03:36:23;;;;;;;7.77;1.90;;;11.00;99.90;;;;;;5114744;28;20186;-46
2023/10/30 03:38:53;;;;;;;8.60;1.53;;;10.90;99.90;;;;;;5095393;28;20232;-46
2023/10/30 03:41:19;;;;;;;7.57;1.60;;;10.90;99.90;;;;;;5094931;28;20202;-46
2023/10/30 03:43:45;;;;;;;6.57;1.63;;;10.90;99.90;;;;;;5095589;28;20194;-46
2023/10/30 03:46:11;;;;;;;4.17;1.23;;;10.90;99.90;;;;;;5113649;28;20186;-46
2023/10/30 03:48:40;;;;;;;9.73;2.00;;;10.90;99.90;;;;;;5113956;28;20228;-45
2023/10/30 03:51:06;;;;;;;8.77;1.53;;;10.90;99.90;;;;;;5113786;28;20206;-45
2023/10/30 03:53:32;;;;;;;6.53;1.47;;;10.90;99.90;;;;;;5114162;28;20210;-45
2023/10/30 03:55:58;;;;;;;8.57;1.73;;;10.90;99.90;;;;;;5115465;28;20273;-46
2023/10/30 03:58:25;;;;;;;7.23;1.37;;;10.80;99.90;;;;;;5115173;28;20209;-45
2023/10/30 04:00:50;;;;;;;6.00;1.60;;;10.80;99.90;;;;;;5115472;28;20751;-46
2023/10/30 04:03:17;;;;;;;7.60;1.67;;;10.80;99.90;;;;;;5096858;28;20198;-46
2023/10/30 04:05:42;;;;;;;6.33;1.90;;;10.80;99.90;;;;;;5114387;28;20198;-46
2023/10/30 04:08:08;;;;;;;13.73;1.43;;;10.90;99.90;;;;;;5113412;28;20186;-45
2023/10/30 04:10:34;;;;;;;5.67;1.30;;;10.80;99.90;;;;;;5095308;28;20559;-46
2023/10/30 04:13:00;;;;;;;4.43;1.50;;;10.80;99.90;;;;;;5113244;28;20674;-46
2023/10/30 04:15:25;;;;;;;4.90;1.47;;;10.80;99.90;;;;;;5113737;28;20222;-46
2023/10/30 04:17:56;;;;;;;8.13;1.30;;;10.80;99.90;;;;;;5095957;28;20193;-45
2023/10/30 04:20:22;;;;;;;5.60;1.67;;;10.80;99.90;;;;;;5113704;28;20255;-45
2023/10/30 04:22:49;;;;;;;10.30;1.43;;;10.80;99.90;;;;;;5113920;28;20198;-46
2023/10/30 04:25:17;;;;;;;5.30;1.43;;;10.70;99.90;;;;;;5115750;28;20269;-46
2023/10/30 04:27:43;;;;;;;7.37;1.50;;;10.70;99.90;;;;;;5117379;28;20302;-45
2023/10/30 04:30:09;;;;;;;7.70;1.63;;;10.70;99.90;;;;;;5117097;28;20196;-45
2023/10/30 04:32:35;;;;;;;8.20;1.40;;;10.60;99.90;;;;;;5117110;28;20281;-46
2023/10/30 04:35:01;;;;;;;6.37;1.37;;;10.60;99.90;;;;;;5116918;28;20699;-45
2023/10/30 04:37:29;;;;;;;7.30;1.57;;;10.60;99.90;;;;;;5098473;28;20206;-44
2023/10/30 04:39:55;;;;;;;5.30;1.60;;;10.60;99.90;;;;;;5116816;28;20268;-46
2023/10/30 04:42:20;;;;;;;7.13;1.87;;;10.60;99.90;;;;;;5116807;28;20616;-46
2023/10/30 04:44:46;;;;;;;5.80;1.60;;;10.50;99.90;;;;;;5116775;28;20190;-44
2023/10/30 04:47:12;;;;;;;7.27;2.37;;;10.50;99.90;;;;;;5117120;28;20196;-46
2023/10/30 04:49:38;;;;;;;7.60;1.30;;;10.50;99.90;;;;;;5097962;28;20220;-44
2023/10/30 04:52:04;;;;;;;4.77;1.10;;;10.40;99.90;;;;;;5098451;28;20206;-46
2023/10/30 04:54:30;;;;;;;7.23;1.40;;;10.40;99.90;;;;;;5116740;28;20210;-45
2023/10/30 04:56:56;;;;;;;6.70;1.73;;;10.40;99.90;;;;;;5116727;28;20197;-46
2023/10/30 04:59:26;;;;;;;4.43;1.00;;;10.40;99.90;;;;;;5116464;28;20215;-46
2023/10/30 05:01:51;;;;;;;7.37;1.10;;;10.30;99.90;;;;;;5116613;28;20662;-45
2023/10/30 05:04:18;;;;;;;6.70;1.40;;;10.30;99.90;;;;;;5116399;28;20206;-45
2023/10/30 05:06:45;;;;;;;5.60;1.60;;;10.20;99.90;;;;;;5116600;28;20197;-44
2023/10/30 05:09:11;;;;;;;6.87;1.30;;;10.20;99.90;;;;;;5117487;28;20201;-45
2023/10/30 05:11:40;;;;;;;5.33;1.40;;;10.20;99.90;;;;;;5116572;28;20289;-46
2023/10/30 05:14:23;;;;;;;4.43;1.10;;;10.20;99.90;;;;;;5114991;28;20217;-46
2023/10/30 05:16:49;;;;;;;5.27;1.37;;;10.20;99.90;;;;;;5098206;28;20292;-45
2023/10/30 05:19:14;;;;;;;5.30;1.23;;;10.10;99.90;;;;;;5098846;28;20190;-45
2023/10/30 05:21:41;;;;;;;6.30;1.17;;;10.10;99.90;;;;;;5116809;28;20673;-46
2023/10/30 05:24:07;;;;;;;8.73;1.23;;;10.10;99.90;;;;;;5099597;28;20194;-46
2023/10/30 05:26:33;;;;;;;7.67;1.60;;;10.00;99.90;;;;;;5117489;28;20188;-45
2023/10/30 05:29:00;;;;;;;8.40;1.20;;;9.90;99.90;;;;;;5115963;28;20564;-45
2023/10/30 05:31:25;;;;;;;6.80;1.13;;;9.90;99.90;;;;;;5115371;28;20647;-46
2023/10/30 05:33:52;;;;;;;6.13;1.43;;;9.90;99.90;;;;;;5097423;28;20305;-45
2023/10/30 05:36:18;;;;;;;4.50;1.23;;;9.90;99.90;;;;;;5096448;28;20281;-46
2023/10/30 05:38:44;;;;;;;6.60;1.23;;;9.80;99.90;;;;;;5115713;28;20224;-46
2023/10/30 05:41:09;;;;;;;3.03;1.13;;;9.70;99.90;;;;;;5115612;28;20206;-46
2023/10/30 05:43:35;;;;;;;8.97;1.43;;;9.70;99.90;;;;;;5115612;28;20254;-45
2023/10/30 05:46:01;;;;;;;5.97;1.50;;;9.70;99.90;;;;;;5115636;28;20263;-46
2023/10/30 05:48:27;;;;;;;5.73;1.37;;;9.60;99.90;;;;;;5115996;28;20180;-46
2023/10/30 05:50:52;;;;;;;8.80;1.70;;;9.60;99.90;;;;;;5115335;28;20198;-44
2023/10/30 05:53:19;;;;;;;4.43;1.47;;;9.60;99.90;;;;;;5115381;28;20206;-45
2023/10/30 05:55:45;;;;;;;8.23;1.83;;;9.60;99.90;;;;;;5115739;28;20186;-45
2023/10/30 05:58:12;;;;;;;3.60;1.40;;;9.60;99.90;;;;;;5097374;28;20184;-45
2023/10/30 06:00:38;;;;;;;8.93;1.77;;;9.70;99.90;;;;;;5097179;28;20243;-45
2023/10/30 06:03:09;;;;;;;7.97;1.90;;;9.70;99.90;;;;;;5115436;28;20177;-45
2023/10/30 06:05:35;;;;;;;4.67;1.60;;;9.60;99.90;;;;;;5115459;28;20717;-44
2023/10/30 06:08:01;;;;;;;5.50;1.20;;;9.60;99.90;;;;;;5115157;28;20246;-45
2023/10/30 06:10:28;;;;;;;6.00;1.47;;;9.60;99.90;;;;;;5115255;28;20202;-46
2023/10/30 06:12:54;;;;;;;9.10;1.73;;;9.60;99.90;;;;;;5080325;28;20322;-45
2023/10/30 06:15:22;;;;;;;7.97;1.60;;;9.70;99.90;;;;;;5114951;28;20219;-45
2023/10/30 06:18:14;;;;;;;9.07;1.60;;;9.70;99.90;;;;;;5096790;28;20200;-45
2023/10/30 06:20:39;;;;;;;6.50;1.53;;;9.70;99.90;;;;;;5115265;28;20734;-46
2023/10/30 06:23:05;;;;;;;13.03;1.50;;;9.70;99.90;;;;;;5114841;28;20181;-45
2023/10/30 06:25:31;;;;;;;3.63;1.17;;;9.70;99.90;;;;;;5115102;28;20193;-45
2023/10/30 06:27:56;;;;;;;8.20;1.80;;;9.60;99.90;;;;;;5114869;28;20193;-45
2023/10/30 06:30:22;;;;;;;9.07;1.80;;;9.50;99.90;;;;;;5114845;28;20233;-45
2023/10/30 06:32:48;;;;;;;7.40;1.57;;;9.50;99.90;;;;;;5114483;28;20620;-45
2023/10/30 06:35:13;;;;;;;8.87;1.60;;;9.40;99.90;;;;;;5096501;28;20284;-45
2023/10/30 06:37:40;;;;;;;5.13;1.63;;;9.40;99.90;;;;;;5114590;28;20209;-46
2023/10/30 06:40:07;;;;;;;10.17;1.80;;;9.40;99.90;;;;;;5114519;28;20650;-45
2023/10/30 06:42:32;;;;;;;8.20;1.50;;;9.30;99.90;;;;;;5079366;28;20195;-45
2023/10/30 06:44:58;;;;;;;7.47;1.47;;;9.30;99.90;;;;;;5114426;28;20185;-45
2023/10/30 06:47:24;;;;;;;3.40;1.23;;;9.30;99.90;;;;;;5114203;28;20319;-45
2023/10/30 06:49:51;;;;;;;5.23;1.57;;;9.20;99.90;;;;;;5114582;28;20178;-45
2023/10/30 06:52:20;;;;;;;9.00;1.53;;;9.10;99.90;;;;;;5112418;28;20210;-45
2023/10/30 06:54:48;;;;;;;6.97;1.83;;;9.10;99.90;;;;;;5114407;28;20215;-45
2023/10/30 06:57:15;;;;;;;6.57;1.20;;;9.10;99.90;;;;;;5096010;28;20248;-45
2023/10/30 06:59:41;;;;;;;6.70;1.60;;;9.10;99.90;;;;;;5114223;28;20188;-45
2023/10/30 07:02:07;;;;;;;7.93;2.00;;;9.20;99.90;;;;;;5114081;28;20209;-46
2023/10/30 07:04:32;;;;;;;8.93;1.30;;;9.20;99.90;;;;;;5114524;28;20243;-43
2023/10/30 07:06:58;;;;;;;8.23;1.93;;;9.20;99.90;;;;;;5096180;28;20725;-45
2023/10/30 07:09:24;;;;;;;5.23;1.37;;;9.10;99.90;;;;;;5096254;28;20227;-46
2023/10/30 07:11:53;;;;;;;8.57;1.90;;;9.10;99.90;;;;;;5114016;28;20706;-46
2023/10/30 07:14:21;;;;;;;5.13;1.30;;;9.00;99.90;;;;;;5114050;28;20302;-46
2023/10/30 07:16:46;;;;;;;7.03;1.90;;;9.00;99.90;;;;;;5113775;28;20210;-45
2023/10/30 07:19:12;;;;;;;3.20;1.20;;;9.00;99.90;;;;;;5095841;28;20662;-44
2023/10/30 07:21:37;;;;;;;5.93;1.87;;;9.00;99.90;;;;;;5113845;28;20211;-45
2023/10/30 07:24:03;;;;;;;8.87;2.03;;;9.00;99.90;;;;;;5113900;28;20219;-45
2023/10/30 07:26:29;;;;;;;8.43;1.90;;;9.00;99.90;;;;;;5113883;28;20189;-45
2023/10/30 07:28:55;;;;;;;9.90;1.90;;;9.00;99.90;;;;;;5113942;28;20191;-46
2023/10/30 07:31:20;;;;;;;9.77;1.60;;;9.00;99.90;;;;;;5113798;28;20201;-46
2023/10/30 07:33:49;;;;;;;9.13;2.00;;;9.10;99.90;;;;;;5095716;28;20225;-46
2023/10/30 07:36:14;;;;;;;12.10;1.70;;;9.20;99.90;;;;;;5112882;28;20649;-45
2023/10/30 07:38:41;;;;;;;12.10;2.47;;;9.30;99.90;;;;;;5113667;28;20344;-45
2023/10/30 07:41:07;;;;;;;8.20;1.80;;;9.40;99.90;;;;;;5113738;28;20682;-45
2023/10/30 07:43:33;;;;;;;6.70;1.90;;;9.40;99.90;;;;;;5113852;28;20179;-46
2023/10/30 07:45:59;;;;;;;8.40;2.10;;;9.50;99.90;;;;;;5113599;28;20194;-45
2023/10/30 07:48:26;;;;;;;11.27;2.23;;;9.70;99.90;;;;;;5113821;28;20213;-45
2023/10/30 07:50:52;;;;;;;9.10;1.73;;;9.80;99.90;;;;;;5113548;28;20566;-46
2023/10/30 07:53:18;;;;;;;16.57;2.07;;;9.90;99.90;;;;;;5114081;28;20226;-46
2023/10/30 07:55:46;;;;;;;15.03;2.13;;;10.00;99.90;;;;;;5095302;28;20652;-45
2023/10/30 07:58:15;;;;;;;9.60;2.13;;;10.10;99.90;;;;;;5113529;28;20265;-45
2023/10/30 08:00:45;;;;;;;4.13;1.23;;;10.20;99.90;;;;;;5099210;28;20212;-45
2023/10/30 08:03:12;;;;;;;10.73;2.03;;;10.30;99.90;;;;;;5117469;28;20210;-45
2023/10/30 08:05:40;;;;;;;15.63;2.03;;;10.40;99.90;;;;;;5098851;28;20195;-46
2023/10/30 08:08:08;;;;;;;12.27;1.90;;;10.50;99.90;;;;;;5117397;28;20205;-45
2023/10/30 08:10:34;;;;;;;10.20;1.70;;;10.60;99.90;;;;;;5117262;28;20219;-45
2023/10/30 08:12:59;;;;;;;6.90;1.77;;;10.70;99.90;;;;;;5117595;28;20205;-45
2023/10/30 08:15:25;;;;;;;5.50;1.70;;;10.80;99.90;;;;;;5117288;28;20194;-44
2023/10/30 08:17:51;;;;;;;13.57;2.17;;;10.80;99.90;;;;;;5117504;28;20196;-46
2023/10/30 08:20:18;;;;;;;8.13;2.03;;;10.90;99.90;;;;;;5117607;28;20213;-45
2023/10/30 08:22:44;;;;;;;8.40;1.77;;;11.00;99.90;;;;;;5117468;28;20633;-45
2023/10/30 08:25:12;;;;;;;11.37;1.70;;;11.00;99.90;;;;;;5117631;28;20181;-44
2023/10/30 08:27:38;;;;;;;9.00;2.20;;;11.10;99.90;;;;;;5116996;28;20181;-44
2023/10/30 08:30:05;;;;;;;7.70;1.77;;;11.20;99.90;;;;;;5116962;28;20701;-45
2023/10/30 08:32:33;;;;;;;5.20;2.10;;;11.20;99.90;;;;;;5117274;28;20212;-45
2023/10/30 08:35:02;;;;;;;9.93;1.70;;;11.30;99.90;;;;;;5117224;28;20189;-46
2023/10/30 08:37:28;;;;;;;11.33;1.90;;;11.40;99.90;;;;;;5098089;28;20576;-46
2023/10/30 08:39:54;;;;;;;8.60;1.90;;;11.40;99.90;;;;;;5098477;28;20196;-45
2023/10/30 08:42:20;;;;;;;6.03;1.50;;;11.50;99.90;;;;;;5116745;28;20181;-46
2023/10/30 08:44:45;;;;;;;10.93;1.80;;;11.60;99.90;;;;;;5098601;28;20189;-46
2023/10/30 08:47:14;;;;;;;8.10;1.97;;;11.70;99.90;;;;;;5116743;28;20189;-46
2023/10/30 08:49:40;;;;;;;7.87;2.53;;;11.70;99.90;;;;;;5116432;28;20189;-45
2023/10/30 08:52:05;;;;;;;7.03;1.67;;;11.80;99.90;;;;;;5116510;28;20209;-45
2023/10/30 08:54:31;;;;;;;10.77;2.40;;;11.90;99.90;;;;;;5116913;28;20217;-44
2023/10/30 08:56:57;;;;;;;9.70;2.73;;;11.90;99.90;;;;;;5098457;28;20186;-45
2023/10/30 08:59:24;;;;;;;11.70;2.20;;;11.90;99.90;;;;;;5116428;28;20657;-44
2023/10/30 09:01:50;;;;;;;12.17;2.53;;;12.00;99.90;;;;;;5117100;28;20198;-46
2023/10/30 09:04:21;;;;;;;10.97;2.20;;;12.10;99.90;;;;;;5116363;28;20315;-45
2023/10/30 09:06:46;;;;;;;13.10;2.17;;;12.20;99.90;;;;;;5116585;28;20176;-45
2023/10/30 09:09:12;;;;;;;9.07;1.43;;;12.30;99.90;;;;;;5116683;28;20610;-46
2023/10/30 09:11:37;;;;;;;6.70;1.50;;;12.30;99.90;;;;;;5116569;28;20217;-46
2023/10/30 09:14:03;;;;;;;7.60;1.60;;;12.40;99.90;;;;;;5116315;28;20214;-45
2023/10/30 09:16:29;;;;;;;9.80;1.87;;;12.40;99.90;;;;;;5116248;28;20189;-45
2023/10/30 09:18:55;;;;;;;7.73;1.80;;;12.40;99.90;;;;;;5116240;28;20632;-46
2023/10/30 09:21:21;;;;;;;7.27;1.73;;;12.50;99.90;;;;;;5097782;28;20209;-46
2023/10/30 09:23:49;;;;;;;5.90;1.97;;;12.60;99.90;;;;;;5116320;28;20174;-46
2023/10/30 09:26:15;;;;;;;8.33;1.87;;;12.60;99.90;;;;;;5116125;28;20182;-46
2023/10/30 09:28:41;;;;;;;8.40;1.70;;;12.70;99.90;;;;;;5115143;28;20186;-45
2023/10/30 09:31:07;;;;;;;5.73;1.73;;;12.70;99.90;;;;;;5115791;28;20206;-45
2023/10/30 09:33:35;;;;;;;6.03;1.80;;;12.70;99.90;;;;;;5115690;28;20206;-46
2023/10/30 09:36:01;;;;;;;8.43;1.97;;;12.80;99.90;;;;;;5115968;28;20186;-45
2023/10/30 09:38:27;;;;;;;6.23;1.80;;;12.80;99.90;;;;;;5115652;28;20760;-46
2023/10/30 09:41:12;;;;;;;5.97;1.90;;;12.90;99.90;;;;;;5115726;28;20299;-46
2023/10/30 09:43:38;;;;;;;9.13;2.10;;;13.00;99.90;;;;;;5097527;28;20292;-46
2023/10/30 09:46:07;;;;;;;6.50;1.60;;;13.10;99.90;;;;;;5115565;28;20224;-46
2023/10/30 09:48:35;;;;;;;8.40;1.80;;;13.10;99.90;;;;;;5097902;28;20186;-45
2023/10/30 09:51:02;;;;;;;6.60;1.53;;;13.20;99.90;;;;;;5115349;28;20672;-46
2023/10/30 09:53:29;;;;;;;7.60;1.40;;;13.30;99.90;;;;;;5115618;28;20214;-47
2023/10/30 09:55:56;;;;;;;7.63;1.67;;;13.40;99.90;;;;;;5115201;28;20190;-45
2023/10/30 09:58:23;;;;;;;6.30;1.67;;;13.40;99.90;;;;;;5097171;28;20204;-46
2023/10/30 10:00:49;;;;;;;4.63;1.80;;;13.50;99.90;;;;;;5115367;28;20646;-45
2023/10/30 10:03:15;;;;;;;8.50;1.23;;;13.50;99.90;;;;;;5116117;28;20181;-46
2023/10/30 10:05:40;;;;;;;6.40;1.30;;;13.60;99.90;;;;;;5116110;28;20182;-47
2023/10/30 10:08:07;;;;;;;7.53;1.67;;;13.70;99.90;;;;;;5116749;28;20190;-46
2023/10/30 10:11:02;;;;;;;4.40;1.30;;;13.70;99.90;;;;;;5116151;28;20213;-46
2023/10/30 10:13:37;;;;;;;4.50;1.10;;;13.80;99.90;;;;;;5115577;28;20194;-45
2023/10/30 10:16:03;;;;;;;4.40;1.30;;;13.90;99.90;;;;;;5115283;28;20193;-44
2023/10/30 10:18:34;;;;;;;3.77;1.33;;;13.90;99.90;;;;;;5114827;28;20207;-45
2023/10/30 10:21:14;;;;;;;2.93;1.10;;;14.00;99.90;;;;;;5114959;28;20198;-45
2023/10/30 10:23:39;;;;;;;7.20;1.40;;;14.00;99.90;;;;;;5114571;28;20167;-46
2023/10/30 10:26:13;;;;;;;8.20;1.40;;;14.10;99.90;;;;;;5115704;28;20236;-45
2023/10/30 10:28:39;;;;;;;5.67;1.30;;;14.20;99.90;;;;;;5114700;28;20206;-45
2023/10/30 10:31:05;;;;;;;3.93;1.30;;;14.20;99.90;;;;;;5114723;28;20293;-45
2023/10/30 10:33:32;;;;;;;4.67;1.63;;;14.20;99.90;;;;;;5114733;28;20612;-45
2023/10/30 10:36:03;;;;;;;4.97;1.30;;;14.30;99.90;;;;;;5114898;28;20174;-45
2023/10/30 10:38:33;;;;;;;5.37;1.50;;;14.30;99.90;;;;;;5114400;28;20202;-46
2023/10/30 10:40:59;;;;;;;4.13;1.30;;;14.30;99.90;;;;;;5114639;28;20718;-44
2023/10/30 10:43:27;;;;;;;3.03;1.30;;;14.40;99.90;;;;;;5114394;28;20178;-45
2023/10/30 10:45:56;;;;;;;1.83;0.90;;;14.50;99.90;;;;;;5114449;28;20177;-47
2023/10/30 10:48:27;;;;;;;5.33;0.90;;;14.50;99.90;;;;;;5114339;28;20182;-46
2023/10/30 10:50:55;;;;;;;2.20;0.90;;;14.50;99.90;;;;;;5114250;28;20361;-46
2023/10/30 10:53:23;;;;;;;3.37;1.03;;;14.50;99.90;;;;;;5096533;28;20222;-45
2023/10/30 10:55:50;;;;;;;4.47;0.90;;;14.60;99.90;;;;;;5096293;28;20182;-44
2023/10/30 10:58:39;;;;;;;5.63;1.13;;;14.60;99.90;;;;;;5114156;28;20239;-45
2023/10/30 11:01:08;;;;;;;4.33;1.10;;;14.60;99.90;;;;;;5114411;28;20204;-46
2023/10/30 11:03:37;;;;;;;5.63;1.03;;;14.60;99.90;;;;;;5114026;28;20189;-45
2023/10/30 11:06:03;;;;;;;2.97;0.87;;;14.60;99.90;;;;;;5114331;28;20186;-46
2023/10/30 11:08:44;;;;;;;2.97;0.90;;;14.60;99.90;;;;;;5114020;28;20182;-45
2023/10/30 11:11:22;;;;;;;1.50;1.00;;;14.60;99.90;;;;;;5114117;28;20688;-46
2023/10/30 11:14:28;;;;;;;3.23;1.30;;;14.60;99.90;;;;;;5113921;28;20212;-46
2023/10/30 11:17:01;;;;;;;2.87;1.23;;;14.60;99.90;;;;;;5114220;28;20161;-46
2023/10/30 11:19:32;;;;;;;2.10;1.00;;;14.60;99.90;;;;;;5114120;28;20180;-46
2023/10/30 11:21:59;;;;;;;3.90;0.97;;;14.50;99.90;;;;;;5114063;28;20206;-45
2023/10/30 11:24:38;;;;;;;2.50;0.80;;;14.60;99.90;;;;;;5113852;28;20549;-46
2023/10/30 11:27:25;;;;;;;3.53;0.70;;;14.60;99.90;;;;;;5114201;28;20254;-47
2023/10/30 11:30:07;;;;;;;1.60;0.80;;;14.50;99.90;;;;;;5114111;28;20186;-44
2023/10/30 11:32:38;;;;;;;1.63;0.80;;;14.50;99.90;;;;;;5095598;28;20599;-45
2023/10/30 11:35:04;;;;;;;2.90;1.10;;;14.50;99.90;;;;;;5115803;28;20186;-44
2023/10/30 11:37:32;;;;;;;2.33;0.90;;;14.50;99.90;;;;;;5117894;28;20327;-45
2023/10/30 11:40:08;;;;;;;1.47;0.80;;;14.50;99.90;;;;;;5119495;28;20204;-46
2023/10/30 11:42:45;;;;;;;4.67;1.20;;;14.50;99.90;;;;;;5101690;28;20630;-44
2023/10/30 11:45:25;;;;;;;2.63;1.00;;;14.50;99.90;;;;;;5100996;28;20193;-45
2023/10/30 11:48:07;;;;;;;2.20;0.60;;;14.40;99.90;;;;;;5099633;28;20193;-46
2023/10/30 11:50:38;;;;;;;1.20;0.63;;;14.40;99.90;;;;;;5099384;28;20662;-46
2023/10/30 11:53:08;;;;;;;1.53;0.83;;;14.40;99.90;;;;;;5118013;28;20206;-46
2023/10/30 11:55:38;;;;;;;3.43;1.80;;;14.40;99.90;;;;;;5117764;28;20265;-47
2023/10/30 11:58:04;;;;;;;3.03;1.70;;;14.40;99.90;;;;;;5117735;28;20193;-46
2023/10/30 12:00:30;;;;;;;3.37;1.20;;;14.40;99.90;;;;;;5117549;28;20199;-45
2023/10/30 12:02:56;;;;;;;1.47;0.97;;;14.60;99.90;;;;;;5117495;28;20178;-45
2023/10/30 12:05:22;;;;;;;1.50;0.70;;;14.70;99.90;;;;;;5117382;28;20235;-46
2023/10/30 12:07:50;;;;;;;1.43;1.20;;;14.70;99.90;;;;;;5117300;28;20722;-45
2023/10/30 12:10:17;;;;;;;3.53;0.90;;;14.80;99.90;;;;;;5117632;28;20203;-48
2023/10/30 12:12:42;;;;;;;1.87;1.50;;;14.90;99.90;;;;;;5117996;28;20269;-45
2023/10/30 12:15:09;;;;;;;3.20;1.10;;;14.90;99.90;;;;;;5117280;28;20261;-45
2023/10/30 12:17:36;;;;;;;1.40;0.80;;;15.00;99.90;;;;;;5117396;28;20240;-45
2023/10/30 12:20:03;;;;;;;1.77;1.03;;;15.00;99.90;;;;;;5117064;28;20677;-45
2023/10/30 12:22:29;;;;;;;3.80;0.70;;;15.10;99.90;;;;;;5117173;28;20186;-46
2023/10/30 12:24:56;;;;;;;1.27;0.70;;;15.20;99.90;;;;;;5117711;28;20266;-45
2023/10/30 12:27:23;;;;;;;1.13;0.47;;;15.20;99.90;;;;;;5117046;28;20194;-46
2023/10/30 12:29:55;;;;;;;0.90;0.47;;;15.30;99.90;;;;;;5117332;28;20187;-46
2023/10/30 12:32:21;;;;;;;0.97;0.70;;;15.30;99.90;;;;;;5117364;28;20170;-46
2023/10/30 12:34:47;;;;;;;1.17;0.90;;;15.30;99.90;;;;;;5116827;28;20210;-46
2023/10/30 12:37:25;;;;;;;1.23;1.10;;;15.30;99.90;;;;;;5098489;28;20178;-45
2023/10/30 12:40:08;;;;;;;0.80;0.80;;;15.30;99.90;;;;;;5117171;28;20170;-46
2023/10/30 12:42:39;;;;;;;1.20;1.10;;;15.40;99.90;;;;;;5117136;28;20182;-46
2023/10/30 12:45:09;;;;;;;2.77;1.00;;;15.40;99.90;;;;;;5097962;28;20650;-45
2023/10/30 12:47:36;;;;;;;15.70;1.27;;;15.40;99.90;;;;;;5117077;28;20196;-46
2023/10/30 12:50:05;;;;;;;3.80;1.37;;;15.30;99.90;;;;;;5116624;28;20690;-46